sensor_id;sensor_type;location;lat;lon;timestamp;P1;durP1;ratioP1;P2;durP2;ratioP2
11677;SDS011;5895;41.950;24.372;2022-11-15T00:02:19;2.78;;;2.58;;
11677;SDS011;5895;41.950;24.372;2022-11-15T00:04:47;2.95;;;2.65;;
11677;SDS011;5895;41.950;24.372;2022-11-15T00:07:14;4.35;;;3.47;;
11677;SDS011;5895;41.950;24.372;2022-11-15T00:09:41;3.28;;;2.97;;
11677;SDS011;5895;41.950;24.372;2022-11-15T00:12:08;4.47;;;3.50;;
11677;SDS011;5895;41.950;24.372;2022-11-15T00:14:36;4.32;;;3.40;;
11677;SDS011;5895;41.950;24.372;2022-11-15T00:17:04;3.55;;;3.25;;
11677;SDS011;5895;41.950;24.372;2022-11-15T00:19:31;6.13;;;4.10;;
11677;SDS011;5895;41.950;24.372;2022-11-15T00:21:58;4.30;;;3.60;;
11677;SDS011;5895;41.950;24.372;2022-11-15T00:24:25;3.47;;;3.03;;
11677;SDS011;5895;41.950;24.372;2022-11-15T00:26:52;3.70;;;2.92;;
11677;SDS011;5895;41.950;24.372;2022-11-15T00:29:19;2.90;;;2.58;;
11677;SDS011;5895;41.950;24.372;2022-11-15T00:31:48;2.97;;;2.63;;
11677;SDS011;5895;41.950;24.372;2022-11-15T00:34:15;2.83;;;2.40;;
11677;SDS011;5895;41.950;24.372;2022-11-15T00:36:42;2.80;;;2.47;;
11677;SDS011;5895;41.950;24.372;2022-11-15T00:39:09;2.50;;;2.30;;
11677;SDS011;5895;41.950;24.372;2022-11-15T00:41:36;2.42;;;2.22;;
11677;SDS011;5895;41.950;24.372;2022-11-15T00:44:03;2.45;;;1.92;;
11677;SDS011;5895;41.950;24.372;2022-11-15T00:46:30;4.30;;;2.72;;
11677;SDS011;5895;41.950;24.372;2022-11-15T00:48:59;2.45;;;2.25;;
11677;SDS011;5895;41.950;24.372;2022-11-15T00:51:26;2.95;;;2.63;;
11677;SDS011;5895;41.950;24.372;2022-11-15T00:53:53;3.90;;;2.92;;
11677;SDS011;5895;41.950;24.372;2022-11-15T00:56:20;2.33;;;2.13;;
11677;SDS011;5895;41.950;24.372;2022-11-15T00:58:48;2.72;;;2.53;;
11677;SDS011;5895;41.950;24.372;2022-11-15T01:01:15;2.35;;;2.15;;
11677;SDS011;5895;41.950;24.372;2022-11-15T01:03:42;2.40;;;2.20;;
11677;SDS011;5895;41.950;24.372;2022-11-15T01:06:10;2.70;;;2.50;;
11677;SDS011;5895;41.950;24.372;2022-11-15T01:08:38;3.15;;;2.80;;
11677;SDS011;5895;41.950;24.372;2022-11-15T01:11:06;2.67;;;2.47;;
11677;SDS011;5895;41.950;24.372;2022-11-15T01:13:37;3.30;;;2.17;;
11677;SDS011;5895;41.950;24.372;2022-11-15T01:16:06;2.30;;;2.10;;
11677;SDS011;5895;41.950;24.372;2022-11-15T01:18:34;2.97;;;2.22;;
11677;SDS011;5895;41.950;24.372;2022-11-15T01:21:06;2.25;;;2.05;;
11677;SDS011;5895;41.950;24.372;2022-11-15T01:23:35;2.47;;;2.28;;
11677;SDS011;5895;41.950;24.372;2022-11-15T01:26:04;2.60;;;2.30;;
11677;SDS011;5895;41.950;24.372;2022-11-15T01:28:33;2.63;;;2.08;;
11677;SDS011;5895;41.950;24.372;2022-11-15T01:31:02;2.25;;;2.05;;
11677;SDS011;5895;41.950;24.372;2022-11-15T01:33:33;2.60;;;2.40;;
11677;SDS011;5895;41.950;24.372;2022-11-15T01:36:03;2.40;;;2.20;;
11677;SDS011;5895;41.950;24.372;2022-11-15T01:38:30;2.40;;;2.17;;
11677;SDS011;5895;41.950;24.372;2022-11-15T01:40:59;2.40;;;2.20;;
11677;SDS011;5895;41.950;24.372;2022-11-15T01:43:27;2.33;;;2.08;;
11677;SDS011;5895;41.950;24.372;2022-11-15T01:45:56;2.10;;;2.00;;
11677;SDS011;5895;41.950;24.372;2022-11-15T01:48:29;2.30;;;2.10;;
11677;SDS011;5895;41.950;24.372;2022-11-15T01:50:59;2.63;;;2.17;;
11677;SDS011;5895;41.950;24.372;2022-11-15T01:53:29;2.83;;;2.38;;
11677;SDS011;5895;41.950;24.372;2022-11-15T01:56:00;2.50;;;2.30;;
11677;SDS011;5895;41.950;24.372;2022-11-15T01:58:30;2.40;;;2.20;;
11677;SDS011;5895;41.950;24.372;2022-11-15T02:00:59;2.83;;;2.50;;
11677;SDS011;5895;41.950;24.372;2022-11-15T02:03:26;2.28;;;2.08;;
11677;SDS011;5895;41.950;24.372;2022-11-15T02:06:01;2.33;;;2.13;;
11677;SDS011;5895;41.950;24.372;2022-11-15T02:08:30;2.53;;;2.30;;
11677;SDS011;5895;41.950;24.372;2022-11-15T02:10:57;2.10;;;2.00;;
11677;SDS011;5895;41.950;24.372;2022-11-15T02:13:25;2.60;;;2.40;;
11677;SDS011;5895;41.950;24.372;2022-11-15T02:15:56;2.13;;;1.92;;
11677;SDS011;5895;41.950;24.372;2022-11-15T02:18:37;2.10;;;2.00;;
11677;SDS011;5895;41.950;24.372;2022-11-15T02:21:11;2.35;;;2.15;;
11677;SDS011;5895;41.950;24.372;2022-11-15T02:27:08;2.67;;;2.10;;
11677;SDS011;5895;41.950;24.372;2022-11-15T02:32:58;2.42;;;2.20;;
11677;SDS011;5895;41.950;24.372;2022-11-15T02:35:33;2.40;;;2.20;;
11677;SDS011;5895;41.950;24.372;2022-11-15T02:38:12;2.55;;;2.22;;
11677;SDS011;5895;41.950;24.372;2022-11-15T02:40:48;2.50;;;2.30;;
11677;SDS011;5895;41.950;24.372;2022-11-15T02:43:21;2.75;;;2.33;;
11677;SDS011;5895;41.950;24.372;2022-11-15T02:46:13;2.50;;;2.30;;
11677;SDS011;5895;41.950;24.372;2022-11-15T02:48:48;2.80;;;2.20;;
11677;SDS011;5895;41.950;24.372;2022-11-15T02:51:15;3.47;;;2.40;;
11677;SDS011;5895;41.950;24.372;2022-11-15T02:53:43;2.58;;;2.38;;
11677;SDS011;5895;41.950;24.372;2022-11-15T02:56:10;2.60;;;2.40;;
11677;SDS011;5895;41.950;24.372;2022-11-15T02:58:46;4.00;;;3.22;;
11677;SDS011;5895;41.950;24.372;2022-11-15T03:01:25;4.78;;;3.10;;
11677;SDS011;5895;41.950;24.372;2022-11-15T03:04:07;2.67;;;2.47;;
11677;SDS011;5895;41.950;24.372;2022-11-15T03:06:46;2.45;;;2.25;;
11677;SDS011;5895;41.950;24.372;2022-11-15T03:09:21;2.47;;;2.28;;
11677;SDS011;5895;41.950;24.372;2022-11-15T03:12:00;2.53;;;2.33;;
11677;SDS011;5895;41.950;24.372;2022-11-15T03:14:34;2.38;;;2.13;;
11677;SDS011;5895;41.950;24.372;2022-11-15T03:17:04;2.83;;;2.58;;
11677;SDS011;5895;41.950;24.372;2022-11-15T03:19:41;2.40;;;2.20;;
11677;SDS011;5895;41.950;24.372;2022-11-15T03:22:12;2.30;;;2.10;;
11677;SDS011;5895;41.950;24.372;2022-11-15T03:24:43;2.47;;;2.28;;
11677;SDS011;5895;41.950;24.372;2022-11-15T03:27:12;2.50;;;2.30;;
11677;SDS011;5895;41.950;24.372;2022-11-15T03:29:43;2.47;;;2.28;;
11677;SDS011;5895;41.950;24.372;2022-11-15T03:32:13;2.47;;;2.20;;
11677;SDS011;5895;41.950;24.372;2022-11-15T03:34:46;3.78;;;2.00;;
11677;SDS011;5895;41.950;24.372;2022-11-15T03:37:17;2.50;;;2.30;;
11677;SDS011;5895;41.950;24.372;2022-11-15T03:39:49;4.03;;;2.22;;
11677;SDS011;5895;41.950;24.372;2022-11-15T03:42:18;2.25;;;2.05;;
11677;SDS011;5895;41.950;24.372;2022-11-15T03:44:51;2.28;;;2.05;;
11677;SDS011;5895;41.950;24.372;2022-11-15T03:47:26;2.40;;;2.20;;
11677;SDS011;5895;41.950;24.372;2022-11-15T03:49:59;2.92;;;2.63;;
11677;SDS011;5895;41.950;24.372;2022-11-15T03:52:31;6.10;;;2.40;;
11677;SDS011;5895;41.950;24.372;2022-11-15T03:55:00;3.33;;;2.40;;
11677;SDS011;5895;41.950;24.372;2022-11-15T03:57:29;2.28;;;2.08;;
11677;SDS011;5895;41.950;24.372;2022-11-15T03:59:56;3.53;;;3.03;;
11677;SDS011;5895;41.950;24.372;2022-11-15T04:02:23;3.63;;;3.20;;
11677;SDS011;5895;41.950;24.372;2022-11-15T04:04:50;2.50;;;2.28;;
11677;SDS011;5895;41.950;24.372;2022-11-15T04:07:19;2.40;;;2.20;;
11677;SDS011;5895;41.950;24.372;2022-11-15T04:09:46;3.38;;;2.85;;
11677;SDS011;5895;41.950;24.372;2022-11-15T04:12:28;2.33;;;2.13;;
11677;SDS011;5895;41.950;24.372;2022-11-15T04:14:59;2.22;;;2.03;;
11677;SDS011;5895;41.950;24.372;2022-11-15T04:17:33;3.38;;;2.83;;
11677;SDS011;5895;41.950;24.372;2022-11-15T04:20:06;3.40;;;3.10;;
11677;SDS011;5895;41.950;24.372;2022-11-15T04:22:54;3.10;;;2.80;;
11677;SDS011;5895;41.950;24.372;2022-11-15T04:25:40;3.00;;;2.78;;
11677;SDS011;5895;41.950;24.372;2022-11-15T04:28:07;3.92;;;2.90;;
11677;SDS011;5895;41.950;24.372;2022-11-15T04:30:34;3.00;;;2.72;;
11677;SDS011;5895;41.950;24.372;2022-11-15T04:33:02;3.67;;;3.25;;
11677;SDS011;5895;41.950;24.372;2022-11-15T04:35:29;3.42;;;3.13;;
11677;SDS011;5895;41.950;24.372;2022-11-15T04:37:58;3.03;;;2.72;;
11677;SDS011;5895;41.950;24.372;2022-11-15T04:40:25;3.60;;;2.90;;
11677;SDS011;5895;41.950;24.372;2022-11-15T04:42:53;3.00;;;2.70;;
11677;SDS011;5895;41.950;24.372;2022-11-15T04:45:20;3.28;;;2.97;;
11677;SDS011;5895;41.950;24.372;2022-11-15T04:47:47;3.15;;;2.85;;
11677;SDS011;5895;41.950;24.372;2022-11-15T04:50:14;4.13;;;3.60;;
11677;SDS011;5895;41.950;24.372;2022-11-15T04:52:42;18.33;;;12.88;;
11677;SDS011;5895;41.950;24.372;2022-11-15T04:55:17;5.78;;;5.18;;
11677;SDS011;5895;41.950;24.372;2022-11-15T04:57:44;7.57;;;6.22;;
11677;SDS011;5895;41.950;24.372;2022-11-15T05:00:12;6.68;;;5.50;;
11677;SDS011;5895;41.950;24.372;2022-11-15T05:02:42;7.50;;;6.07;;
11677;SDS011;5895;41.950;24.372;2022-11-15T05:05:26;6.97;;;5.75;;
11677;SDS011;5895;41.950;24.372;2022-11-15T05:07:53;5.93;;;5.22;;
11677;SDS011;5895;41.950;24.372;2022-11-15T05:10:22;7.35;;;5.45;;
11677;SDS011;5895;41.950;24.372;2022-11-15T05:12:49;5.78;;;5.18;;
11677;SDS011;5895;41.950;24.372;2022-11-15T05:15:16;4.85;;;4.35;;
11677;SDS011;5895;41.950;24.372;2022-11-15T05:17:44;6.57;;;5.90;;
11677;SDS011;5895;41.950;24.372;2022-11-15T05:20:11;8.27;;;6.63;;
11677;SDS011;5895;41.950;24.372;2022-11-15T05:22:38;10.38;;;7.72;;
11677;SDS011;5895;41.950;24.372;2022-11-15T05:25:06;9.57;;;8.35;;
11677;SDS011;5895;41.950;24.372;2022-11-15T05:27:35;31.75;;;20.85;;
11677;SDS011;5895;41.950;24.372;2022-11-15T05:30:02;21.17;;;15.38;;
11677;SDS011;5895;41.950;24.372;2022-11-15T05:32:29;10.13;;;8.68;;
11677;SDS011;5895;41.950;24.372;2022-11-15T05:34:57;7.90;;;6.80;;
11677;SDS011;5895;41.950;24.372;2022-11-15T05:37:24;8.00;;;6.93;;
11677;SDS011;5895;41.950;24.372;2022-11-15T05:39:51;9.05;;;6.20;;
11677;SDS011;5895;41.950;24.372;2022-11-15T05:42:18;10.13;;;7.80;;
11677;SDS011;5895;41.950;24.372;2022-11-15T05:44:47;9.95;;;8.13;;
11677;SDS011;5895;41.950;24.372;2022-11-15T05:47:16;10.30;;;9.18;;
11677;SDS011;5895;41.950;24.372;2022-11-15T05:49:45;10.95;;;9.82;;
11677;SDS011;5895;41.950;24.372;2022-11-15T05:52:15;10.48;;;9.40;;
11677;SDS011;5895;41.950;24.372;2022-11-15T05:54:45;9.48;;;8.50;;
11677;SDS011;5895;41.950;24.372;2022-11-15T05:57:12;9.75;;;8.77;;
11677;SDS011;5895;41.950;24.372;2022-11-15T05:59:40;9.85;;;6.40;;
11677;SDS011;5895;41.950;24.372;2022-11-15T06:02:10;7.22;;;6.55;;
11677;SDS011;5895;41.950;24.372;2022-11-15T06:04:37;7.30;;;6.60;;
11677;SDS011;5895;41.950;24.372;2022-11-15T06:07:04;8.43;;;7.53;;
11677;SDS011;5895;41.950;24.372;2022-11-15T06:09:32;7.50;;;6.57;;
11677;SDS011;5895;41.950;24.372;2022-11-15T06:11:59;8.73;;;7.82;;
11677;SDS011;5895;41.950;24.372;2022-11-15T06:14:26;8.60;;;7.50;;
11677;SDS011;5895;41.950;24.372;2022-11-15T06:16:53;3.67;;;3.38;;
11677;SDS011;5895;41.950;24.372;2022-11-15T06:19:21;4.57;;;3.90;;
11677;SDS011;5895;41.950;24.372;2022-11-15T06:21:48;3.33;;;3.03;;
11677;SDS011;5895;41.950;24.372;2022-11-15T06:24:16;4.75;;;3.17;;
11677;SDS011;5895;41.950;24.372;2022-11-15T06:26:43;4.18;;;3.10;;
11677;SDS011;5895;41.950;24.372;2022-11-15T06:29:10;3.95;;;3.25;;
11677;SDS011;5895;41.950;24.372;2022-11-15T06:31:37;4.60;;;4.20;;
11677;SDS011;5895;41.950;24.372;2022-11-15T06:34:04;4.20;;;3.80;;
11677;SDS011;5895;41.950;24.372;2022-11-15T06:36:33;4.10;;;3.80;;
11677;SDS011;5895;41.950;24.372;2022-11-15T06:39:01;4.47;;;3.25;;
11677;SDS011;5895;41.950;24.372;2022-11-15T06:41:28;3.20;;;2.90;;
11677;SDS011;5895;41.950;24.372;2022-11-15T06:43:56;4.43;;;3.05;;
11677;SDS011;5895;41.950;24.372;2022-11-15T06:46:23;2.97;;;2.78;;
11677;SDS011;5895;41.950;24.372;2022-11-15T06:48:51;3.38;;;3.00;;
11677;SDS011;5895;41.950;24.372;2022-11-15T06:51:18;3.60;;;3.30;;
11677;SDS011;5895;41.950;24.372;2022-11-15T06:53:47;4.22;;;3.75;;
11677;SDS011;5895;41.950;24.372;2022-11-15T06:56:14;17.60;;;15.75;;
11677;SDS011;5895;41.950;24.372;2022-11-15T06:58:41;20.45;;;18.35;;
11677;SDS011;5895;41.950;24.372;2022-11-15T07:01:09;18.08;;;16.08;;
11677;SDS011;5895;41.950;24.372;2022-11-15T07:03:38;20.92;;;16.95;;
11677;SDS011;5895;41.950;24.372;2022-11-15T07:06:06;15.18;;;12.05;;
11677;SDS011;5895;41.950;24.372;2022-11-15T07:08:35;10.80;;;9.70;;
11677;SDS011;5895;41.950;24.372;2022-11-15T07:11:05;4.50;;;3.90;;
11677;SDS011;5895;41.950;24.372;2022-11-15T07:13:33;4.20;;;3.80;;
11677;SDS011;5895;41.950;24.372;2022-11-15T07:16:02;3.63;;;3.30;;
11677;SDS011;5895;41.950;24.372;2022-11-15T07:18:30;4.35;;;3.05;;
11677;SDS011;5895;41.950;24.372;2022-11-15T07:21:00;3.58;;;3.10;;
11677;SDS011;5895;41.950;24.372;2022-11-15T07:23:28;4.25;;;3.20;;
11677;SDS011;5895;41.950;24.372;2022-11-15T07:25:56;5.32;;;3.88;;
11677;SDS011;5895;41.950;24.372;2022-11-15T07:28:26;6.15;;;5.55;;
11677;SDS011;5895;41.950;24.372;2022-11-15T07:30:53;10.40;;;9.32;;
11677;SDS011;5895;41.950;24.372;2022-11-15T07:33:20;10.93;;;9.82;;
11677;SDS011;5895;41.950;24.372;2022-11-15T07:35:48;12.60;;;11.43;;
11677;SDS011;5895;41.950;24.372;2022-11-15T07:38:15;16.23;;;13.00;;
11677;SDS011;5895;41.950;24.372;2022-11-15T07:40:44;21.75;;;19.75;;
11677;SDS011;5895;41.950;24.372;2022-11-15T07:43:12;5.80;;;5.30;;
11677;SDS011;5895;41.950;24.372;2022-11-15T07:45:42;4.55;;;4.15;;
11677;SDS011;5895;41.950;24.372;2022-11-15T07:48:11;24.88;;;20.35;;
11677;SDS011;5895;41.950;24.372;2022-11-15T07:50:40;30.48;;;25.95;;
11677;SDS011;5895;41.950;24.372;2022-11-15T07:53:07;38.63;;;31.20;;
11677;SDS011;5895;41.950;24.372;2022-11-15T07:55:35;40.58;;;34.35;;
11677;SDS011;5895;41.950;24.372;2022-11-15T07:58:04;44.88;;;36.13;;
11677;SDS011;5895;41.950;24.372;2022-11-15T08:00:32;36.33;;;29.23;;
11677;SDS011;5895;41.950;24.372;2022-11-15T08:03:05;34.60;;;24.73;;
11677;SDS011;5895;41.950;24.372;2022-11-15T08:05:33;18.40;;;15.05;;
11677;SDS011;5895;41.950;24.372;2022-11-15T08:08:00;19.75;;;13.27;;
11677;SDS011;5895;41.950;24.372;2022-11-15T08:10:28;13.65;;;12.02;;
11677;SDS011;5895;41.950;24.372;2022-11-15T08:12:59;11.10;;;9.93;;
11677;SDS011;5895;41.950;24.372;2022-11-15T08:15:26;13.32;;;9.35;;
11677;SDS011;5895;41.950;24.372;2022-11-15T08:17:54;7.93;;;7.13;;
11677;SDS011;5895;41.950;24.372;2022-11-15T08:20:24;7.93;;;6.50;;
11677;SDS011;5895;41.950;24.372;2022-11-15T08:22:55;3.40;;;3.10;;
11677;SDS011;5895;41.950;24.372;2022-11-15T08:25:22;4.68;;;3.90;;
11677;SDS011;5895;41.950;24.372;2022-11-15T08:27:51;3.10;;;2.80;;
11677;SDS011;5895;41.950;24.372;2022-11-15T08:30:19;4.35;;;3.95;;
11677;SDS011;5895;41.950;24.372;2022-11-15T08:32:46;6.00;;;4.10;;
11677;SDS011;5895;41.950;24.372;2022-11-15T08:35:13;2.85;;;2.65;;
11677;SDS011;5895;41.950;24.372;2022-11-15T08:37:42;3.08;;;2.83;;
11677;SDS011;5895;41.950;24.372;2022-11-15T08:40:09;4.45;;;3.10;;
11677;SDS011;5895;41.950;24.372;2022-11-15T08:42:38;3.47;;;3.13;;
11677;SDS011;5895;41.950;24.372;2022-11-15T08:45:06;2.88;;;2.67;;
11677;SDS011;5895;41.950;24.372;2022-11-15T08:47:34;3.22;;;2.92;;
11677;SDS011;5895;41.950;24.372;2022-11-15T08:50:01;3.80;;;3.05;;
11677;SDS011;5895;41.950;24.372;2022-11-15T08:52:29;3.20;;;2.90;;
11677;SDS011;5895;41.950;24.372;2022-11-15T08:54:58;2.70;;;2.50;;
11677;SDS011;5895;41.950;24.372;2022-11-15T08:57:27;6.07;;;5.15;;
11677;SDS011;5895;41.950;24.372;2022-11-15T08:59:55;3.60;;;3.30;;
11677;SDS011;5895;41.950;24.372;2022-11-15T09:02:23;5.60;;;5.10;;
11677;SDS011;5895;41.950;24.372;2022-11-15T09:04:50;7.18;;;6.47;;
11677;SDS011;5895;41.950;24.372;2022-11-15T09:07:17;3.60;;;3.30;;
11677;SDS011;5895;41.950;24.372;2022-11-15T09:09:44;3.78;;;3.38;;
11677;SDS011;5895;41.950;24.372;2022-11-15T09:12:13;3.17;;;2.88;;
11677;SDS011;5895;41.950;24.372;2022-11-15T09:14:40;5.70;;;2.80;;
11677;SDS011;5895;41.950;24.372;2022-11-15T09:17:07;2.80;;;2.55;;
11677;SDS011;5895;41.950;24.372;2022-11-15T09:19:34;3.45;;;3.15;;
11677;SDS011;5895;41.950;24.372;2022-11-15T09:22:02;3.20;;;2.92;;
11677;SDS011;5895;41.950;24.372;2022-11-15T09:24:33;4.00;;;2.55;;
11677;SDS011;5895;41.950;24.372;2022-11-15T09:27:00;2.88;;;2.65;;
11677;SDS011;5895;41.950;24.372;2022-11-15T09:29:28;2.58;;;2.38;;
11677;SDS011;5895;41.950;24.372;2022-11-15T09:31:55;3.30;;;3.00;;
11677;SDS011;5895;41.950;24.372;2022-11-15T09:34:22;4.15;;;2.47;;
11677;SDS011;5895;41.950;24.372;2022-11-15T09:36:50;2.50;;;2.30;;
11677;SDS011;5895;41.950;24.372;2022-11-15T09:39:17;2.28;;;2.08;;
11677;SDS011;5895;41.950;24.372;2022-11-15T09:41:48;3.75;;;2.30;;
11677;SDS011;5895;41.950;24.372;2022-11-15T09:44:27;2.50;;;2.30;;
11677;SDS011;5895;41.950;24.372;2022-11-15T09:47:07;2.70;;;2.50;;
11677;SDS011;5895;41.950;24.372;2022-11-15T09:49:50;2.67;;;2.47;;
11677;SDS011;5895;41.950;24.372;2022-11-15T09:52:19;2.72;;;2.53;;
11677;SDS011;5895;41.950;24.372;2022-11-15T09:54:48;2.33;;;2.20;;
11677;SDS011;5895;41.950;24.372;2022-11-15T09:57:18;2.80;;;2.60;;
11677;SDS011;5895;41.950;24.372;2022-11-15T09:59:55;2.45;;;2.25;;
11677;SDS011;5895;41.950;24.372;2022-11-15T10:02:36;3.05;;;2.75;;
11677;SDS011;5895;41.950;24.372;2022-11-15T10:05:14;2.30;;;2.10;;
11677;SDS011;5895;41.950;24.372;2022-11-15T10:07:46;2.60;;;2.40;;
11677;SDS011;5895;41.950;24.372;2022-11-15T10:10:23;2.70;;;2.50;;
11677;SDS011;5895;41.950;24.372;2022-11-15T10:12:57;2.78;;;2.58;;
11677;SDS011;5895;41.950;24.372;2022-11-15T10:15:26;5.05;;;3.90;;
11677;SDS011;5895;41.950;24.372;2022-11-15T10:20:46;3.33;;;3.03;;
11677;SDS011;5895;41.950;24.372;2022-11-15T10:23:15;7.63;;;3.80;;
11677;SDS011;5895;41.950;24.372;2022-11-15T10:25:46;3.10;;;2.80;;
11677;SDS011;5895;41.950;24.372;2022-11-15T10:28:15;3.83;;;3.42;;
11677;SDS011;5895;41.950;24.372;2022-11-15T10:30:45;2.90;;;2.50;;
11677;SDS011;5895;41.950;24.372;2022-11-15T10:33:18;2.67;;;2.40;;
11677;SDS011;5895;41.950;24.372;2022-11-15T10:35:57;2.30;;;2.17;;
11677;SDS011;5895;41.950;24.372;2022-11-15T10:38:55;2.20;;;2.00;;
11677;SDS011;5895;41.950;24.372;2022-11-15T10:41:29;2.47;;;2.28;;
11677;SDS011;5895;41.950;24.372;2022-11-15T10:44:20;2.47;;;2.28;;
11677;SDS011;5895;41.950;24.372;2022-11-15T10:49:56;2.30;;;2.10;;
11677;SDS011;5895;41.950;24.372;2022-11-15T10:52:28;2.47;;;2.25;;
11677;SDS011;5895;41.950;24.372;2022-11-15T10:54:59;2.50;;;2.30;;
11677;SDS011;5895;41.950;24.372;2022-11-15T10:57:31;2.67;;;2.47;;
11677;SDS011;5895;41.950;24.372;2022-11-15T11:00:03;2.53;;;2.33;;
11677;SDS011;5895;41.950;24.372;2022-11-15T11:02:35;2.63;;;2.42;;
11677;SDS011;5895;41.950;24.372;2022-11-15T11:05:04;2.72;;;2.53;;
11677;SDS011;5895;41.950;24.372;2022-11-15T11:07:34;2.72;;;2.53;;
11677;SDS011;5895;41.950;24.372;2022-11-15T11:10:03;3.20;;;2.90;;
11677;SDS011;5895;41.950;24.372;2022-11-15T11:12:33;3.20;;;2.90;;
11677;SDS011;5895;41.950;24.372;2022-11-15T11:15:01;3.92;;;3.63;;
11677;SDS011;5895;41.950;24.372;2022-11-15T11:17:44;3.40;;;3.10;;
11677;SDS011;5895;41.950;24.372;2022-11-15T11:20:31;3.78;;;3.00;;
11677;SDS011;5895;41.950;24.372;2022-11-15T11:23:09;3.92;;;2.75;;
11677;SDS011;5895;41.950;24.372;2022-11-15T11:25:47;2.88;;;2.67;;
11677;SDS011;5895;41.950;24.372;2022-11-15T11:28:29;3.38;;;3.05;;
11677;SDS011;5895;41.950;24.372;2022-11-15T11:31:10;2.70;;;2.50;;
11677;SDS011;5895;41.950;24.372;2022-11-15T11:33:51;3.47;;;2.53;;
11677;SDS011;5895;41.950;24.372;2022-11-15T11:36:25;2.80;;;2.50;;
11677;SDS011;5895;41.950;24.372;2022-11-15T11:39:11;2.63;;;2.42;;
11677;SDS011;5895;41.950;24.372;2022-11-15T11:41:52;2.50;;;2.30;;
11677;SDS011;5895;41.950;24.372;2022-11-15T11:44:34;3.00;;;2.70;;
11677;SDS011;5895;41.950;24.372;2022-11-15T11:47:10;3.28;;;2.97;;
11677;SDS011;5895;41.950;24.372;2022-11-15T11:49:41;3.13;;;2.88;;
11677;SDS011;5895;41.950;24.372;2022-11-15T11:52:14;3.45;;;3.15;;
11677;SDS011;5895;41.950;24.372;2022-11-15T11:54:50;3.00;;;2.65;;
11677;SDS011;5895;41.950;24.372;2022-11-15T11:57:27;2.70;;;2.50;;
11677;SDS011;5895;41.950;24.372;2022-11-15T12:00:04;2.90;;;2.60;;
11677;SDS011;5895;41.950;24.372;2022-11-15T12:02:41;3.03;;;2.83;;
11677;SDS011;5895;41.950;24.372;2022-11-15T12:05:13;2.90;;;2.70;;
11677;SDS011;5895;41.950;24.372;2022-11-15T12:07:46;4.13;;;3.13;;
11677;SDS011;5895;41.950;24.372;2022-11-15T12:10:18;2.70;;;2.50;;
11677;SDS011;5895;41.950;24.372;2022-11-15T12:12:52;2.60;;;2.40;;
11677;SDS011;5895;41.950;24.372;2022-11-15T12:15:26;2.03;;;1.90;;
11677;SDS011;5895;41.950;24.372;2022-11-15T12:17:57;4.10;;;2.00;;
11677;SDS011;5895;41.950;24.372;2022-11-15T12:20:29;2.22;;;2.10;;
11677;SDS011;5895;41.950;24.372;2022-11-15T12:23:04;2.10;;;1.90;;
11677;SDS011;5895;41.950;24.372;2022-11-15T12:25:44;2.20;;;2.00;;
11677;SDS011;5895;41.950;24.372;2022-11-15T12:28:15;2.92;;;2.10;;
11677;SDS011;5895;41.950;24.372;2022-11-15T12:30:48;2.30;;;2.10;;
11677;SDS011;5895;41.950;24.372;2022-11-15T12:33:31;2.10;;;2.00;;
11677;SDS011;5895;41.950;24.372;2022-11-15T12:36:04;2.17;;;2.00;;
11677;SDS011;5895;41.950;24.372;2022-11-15T12:41:20;2.20;;;2.00;;
11677;SDS011;5895;41.950;24.372;2022-11-15T12:43:49;1.90;;;1.60;;
11677;SDS011;5895;41.950;24.372;2022-11-15T12:46:22;2.30;;;2.10;;
11677;SDS011;5895;41.950;24.372;2022-11-15T12:49:23;2.05;;;1.90;;
11677;SDS011;5895;41.950;24.372;2022-11-15T12:52:13;1.88;;;1.77;;
11677;SDS011;5895;41.950;24.372;2022-11-15T12:57:49;1.80;;;1.70;;
11677;SDS011;5895;41.950;24.372;2022-11-15T13:03:27;2.05;;;1.95;;
11677;SDS011;5895;41.950;24.372;2022-11-15T13:06:05;3.08;;;1.95;;
11677;SDS011;5895;41.950;24.372;2022-11-15T13:08:49;1.88;;;1.77;;
11677;SDS011;5895;41.950;24.372;2022-11-15T13:14:46;1.80;;;1.70;;
11677;SDS011;5895;41.950;24.372;2022-11-15T13:17:26;2.50;;;2.30;;
11677;SDS011;5895;41.950;24.372;2022-11-15T13:22:52;2.50;;;2.30;;
11677;SDS011;5895;41.950;24.372;2022-11-15T13:25:44;2.20;;;2.10;;
11677;SDS011;5895;41.950;24.372;2022-11-15T13:28:31;2.40;;;2.20;;
11677;SDS011;5895;41.950;24.372;2022-11-15T13:31:00;1.70;;;1.60;;
11677;SDS011;5895;41.950;24.372;2022-11-15T13:33:30;1.88;;;1.77;;
11677;SDS011;5895;41.950;24.372;2022-11-15T13:36:00;2.20;;;2.00;;
11677;SDS011;5895;41.950;24.372;2022-11-15T13:38:30;2.20;;;2.00;;
11677;SDS011;5895;41.950;24.372;2022-11-15T13:41:16;2.13;;;1.90;;
11677;SDS011;5895;41.950;24.372;2022-11-15T13:43:46;2.10;;;1.90;;
11677;SDS011;5895;41.950;24.372;2022-11-15T13:46:15;1.83;;;1.73;;
11677;SDS011;5895;41.950;24.372;2022-11-15T13:48:44;2.30;;;2.10;;
11677;SDS011;5895;41.950;24.372;2022-11-15T13:51:15;4.10;;;3.60;;
11677;SDS011;5895;41.950;24.372;2022-11-15T13:53:47;4.82;;;3.72;;
11677;SDS011;5895;41.950;24.372;2022-11-15T13:56:20;2.67;;;2.47;;
11677;SDS011;5895;41.950;24.372;2022-11-15T13:58:48;3.85;;;2.20;;
11677;SDS011;5895;41.950;24.372;2022-11-15T14:01:16;2.25;;;2.05;;
11677;SDS011;5895;41.950;24.372;2022-11-15T14:03:50;1.88;;;1.75;;
11677;SDS011;5895;41.950;24.372;2022-11-15T14:06:20;1.80;;;1.70;;
11677;SDS011;5895;41.950;24.372;2022-11-15T14:11:59;1.90;;;1.70;;
11677;SDS011;5895;41.950;24.372;2022-11-15T14:14:28;2.88;;;2.60;;
11677;SDS011;5895;41.950;24.372;2022-11-15T14:16:57;2.35;;;2.15;;
11677;SDS011;5895;41.950;24.372;2022-11-15T14:19:35;2.75;;;2.55;;
11677;SDS011;5895;41.950;24.372;2022-11-15T14:22:09;2.55;;;2.10;;
11677;SDS011;5895;41.950;24.372;2022-11-15T14:24:38;1.90;;;1.80;;
11677;SDS011;5895;41.950;24.372;2022-11-15T14:27:17;2.03;;;1.75;;
11677;SDS011;5895;41.950;24.372;2022-11-15T14:29:48;3.13;;;1.50;;
11677;SDS011;5895;41.950;24.372;2022-11-15T14:32:17;3.25;;;1.60;;
11677;SDS011;5895;41.950;24.372;2022-11-15T14:34:46;1.60;;;1.50;;
11677;SDS011;5895;41.950;24.372;2022-11-15T14:37:19;2.38;;;1.73;;
11677;SDS011;5895;41.950;24.372;2022-11-15T14:39:48;1.90;;;1.80;;
11677;SDS011;5895;41.950;24.372;2022-11-15T14:42:17;2.65;;;1.80;;
11677;SDS011;5895;41.950;24.372;2022-11-15T14:44:45;1.70;;;1.60;;
11677;SDS011;5895;41.950;24.372;2022-11-15T14:47:12;1.80;;;1.70;;
11677;SDS011;5895;41.950;24.372;2022-11-15T14:49:39;2.45;;;1.80;;
11677;SDS011;5895;41.950;24.372;2022-11-15T14:55:31;4.20;;;3.72;;
11677;SDS011;5895;41.950;24.372;2022-11-15T14:58:02;8.25;;;4.72;;
11677;SDS011;5895;41.950;24.372;2022-11-15T15:00:30;8.32;;;7.10;;
11677;SDS011;5895;41.950;24.372;2022-11-15T15:02:58;9.48;;;8.57;;
11677;SDS011;5895;41.950;24.372;2022-11-15T15:05:26;11.52;;;8.02;;
11677;SDS011;5895;41.950;24.372;2022-11-15T15:07:57;6.85;;;6.25;;
11677;SDS011;5895;41.950;24.372;2022-11-15T15:10:24;5.97;;;4.85;;
11677;SDS011;5895;41.950;24.372;2022-11-15T15:12:54;7.25;;;6.55;;
11677;SDS011;5895;41.950;24.372;2022-11-15T15:15:23;10.02;;;7.75;;
11677;SDS011;5895;41.950;24.372;2022-11-15T15:17:51;8.05;;;7.07;;
11677;SDS011;5895;41.950;24.372;2022-11-15T15:20:18;9.00;;;6.05;;
11677;SDS011;5895;41.950;24.372;2022-11-15T15:22:45;9.85;;;8.85;;
11677;SDS011;5895;41.950;24.372;2022-11-15T15:25:20;13.70;;;11.82;;
11677;SDS011;5895;41.950;24.372;2022-11-15T15:27:51;23.13;;;19.63;;
11677;SDS011;5895;41.950;24.372;2022-11-15T15:30:18;24.90;;;19.52;;
11677;SDS011;5895;41.950;24.372;2022-11-15T15:32:46;21.60;;;16.88;;
11677;SDS011;5895;41.950;24.372;2022-11-15T15:35:14;20.23;;;15.25;;
11677;SDS011;5895;41.950;24.372;2022-11-15T15:37:43;25.55;;;20.90;;
11677;SDS011;5895;41.950;24.372;2022-11-15T15:40:13;30.00;;;24.27;;
11677;SDS011;5895;41.950;24.372;2022-11-15T15:42:42;34.35;;;27.27;;